Time;durP1;ratioP1;P1;durP2;ratioP2;P2;SDS_P1;SDS_P2;PMS_P1;PMS_P2;Temp;Humidity;BMP_temperature;BMP_pressure;BME280_temperature;BME280_humidity;BME280_pressure;Samples;Min_cycle;Max_cycle;Signal;HPM_P1;HPM_P2
2021/03/03 00:00:22;;;;;;;22.45;16.77;;;5.90;71.20;;;;;;5048356;28;20196;-83
2021/03/03 00:02:49;;;;;;;23.70;16.95;;;5.90;71.10;;;;;;5052733;28;20219;-83
2021/03/03 00:05:15;;;;;;;22.35;17.70;;;5.90;71.00;;;;;;5040296;28;20268;-83
2021/03/03 00:07:43;;;;;;;22.77;16.77;;;5.90;70.90;;;;;;5041545;28;20251;-83
2021/03/03 00:10:10;;;;;;;21.98;16.88;;;5.90;71.00;;;;;;5052556;28;20239;-82
2021/03/03 00:12:37;;;;;;;23.20;17.55;;;6.00;71.20;;;;;;5040431;28;20288;-83
2021/03/03 00:15:04;;;;;;;23.83;16.00;;;6.00;71.20;;;;;;5033610;28;20271;-83
2021/03/03 00:17:30;;;;;;;25.25;16.90;;;5.90;71.00;;;;;;5034306;28;20636;-83
2021/03/03 00:19:57;;;;;;;23.45;16.63;;;5.90;71.20;;;;;;5038098;28;20228;-83
2021/03/03 00:22:23;;;;;;;22.05;15.75;;;5.90;71.30;;;;;;5049943;28;20652;-82
2021/03/03 00:24:50;;;;;;;26.70;16.73;;;5.90;71.50;;;;;;5065538;28;20295;-83
2021/03/03 00:27:17;;;;;;;29.17;17.02;;;6.00;71.60;;;;;;5052968;28;20622;-83
2021/03/03 00:29:43;;;;;;;25.13;16.30;;;6.10;71.50;;;;;;5043178;28;20223;-83
2021/03/03 00:32:10;;;;;;;24.40;16.52;;;6.20;71.90;;;;;;5032856;28;20303;-83
2021/03/03 00:34:36;;;;;;;28.55;16.70;;;6.10;71.30;;;;;;5035286;28;20228;-82
2021/03/03 00:37:02;;;;;;;27.40;17.60;;;6.10;71.40;;;;;;5042703;28;20307;-83
2021/03/03 00:39:30;;;;;;;29.38;17.67;;;6.10;71.40;;;;;;5049970;28;20283;-83
2021/03/03 00:41:58;;;;;;;27.08;17.27;;;6.10;71.30;;;;;;5052840;28;20269;-83
2021/03/03 00:44:24;;;;;;;30.35;16.77;;;6.00;71.40;;;;;;5046168;28;20287;-82
2021/03/03 00:46:51;;;;;;;28.15;17.25;;;6.00;71.70;;;;;;5037629;28;20283;-83
2021/03/03 00:49:17;;;;;;;24.70;14.80;;;6.00;71.60;;;;;;5034452;28;20217;-83
2021/03/03 00:51:44;;;;;;;27.50;17.25;;;6.10;72.00;;;;;;5035396;28;20287;-82
2021/03/03 00:54:10;;;;;;;18.85;14.05;;;6.10;71.80;;;;;;5051834;28;20292;-83
2021/03/03 00:56:37;;;;;;;22.10;16.02;;;6.10;71.70;;;;;;5042564;28;20243;-82
2021/03/03 00:59:04;;;;;;;26.67;16.13;;;6.20;71.70;;;;;;5036215;28;20486;-82
2021/03/03 01:01:30;;;;;;;24.05;17.10;;;6.20;71.60;;;;;;5049350;28;20550;-82
2021/03/03 01:03:57;;;;;;;25.23;15.27;;;6.10;71.40;;;;;;5051282;28;20673;-82
2021/03/03 01:06:23;;;;;;;24.55;15.38;;;6.10;71.60;;;;;;5034221;28;20287;-82
2021/03/03 01:08:50;;;;;;;22.27;15.05;;;6.00;71.60;;;;;;5033204;28;20319;-83
2021/03/03 01:11:16;;;;;;;18.23;14.50;;;5.90;71.40;;;;;;5051801;28;20200;-83
2021/03/03 01:13:43;;;;;;;22.52;14.65;;;6.00;71.70;;;;;;5049888;28;20253;-83
2021/03/03 01:16:10;;;;;;;27.98;15.05;;;5.90;71.50;;;;;;5040300;28;20235;-83
2021/03/03 01:18:36;;;;;;;20.83;14.40;;;5.80;71.60;;;;;;5050201;28;20226;-83
2021/03/03 01:21:03;;;;;;;22.33;15.32;;;5.70;72.30;;;;;;5051370;28;20227;-82
2021/03/03 01:23:29;;;;;;;24.02;14.93;;;5.70;71.90;;;;;;5052349;28;20295;-82
2021/03/03 01:25:56;;;;;;;30.20;16.40;;;5.80;72.00;;;;;;5048930;28;20294;-83
2021/03/03 01:28:22;;;;;;;22.80;15.70;;;5.80;72.10;;;;;;5031715;28;20204;-82
2021/03/03 01:30:49;;;;;;;27.27;15.45;;;5.80;72.10;;;;;;5035094;28;20319;-82
2021/03/03 01:33:24;;;;;;;24.40;17.13;;;5.90;72.20;;;;;;5034042;28;20547;-82
2021/03/03 01:35:50;;;;;;;31.38;19.08;;;5.80;72.10;;;;;;5050065;28;20203;-82
2021/03/03 01:38:16;;;;;;;25.00;15.70;;;5.80;72.30;;;;;;5035492;28;20761;-82
2021/03/03 01:40:43;;;;;;;21.30;15.75;;;5.80;72.20;;;;;;5042508;28;20200;-82
2021/03/03 01:43:09;;;;;;;20.20;15.10;;;5.80;72.10;;;;;;5050051;28;20215;-82
2021/03/03 01:45:35;;;;;;;23.75;15.48;;;5.80;72.30;;;;;;5050773;28;20239;-82
2021/03/03 01:48:02;;;;;;;20.35;14.50;;;5.80;72.20;;;;;;5048498;28;20211;-82
2021/03/03 01:50:30;;;;;;;25.15;14.23;;;5.80;72.20;;;;;;5050700;28;20220;-82
2021/03/03 01:52:57;;;;;;;27.10;16.60;;;5.80;72.40;;;;;;5036828;28;20211;-83
2021/03/03 01:55:24;;;;;;;19.63;15.70;;;5.90;72.40;;;;;;5031326;28;20226;-83
2021/03/03 01:57:51;;;;;;;26.75;16.73;;;5.90;71.90;;;;;;5036012;28;20232;-83
2021/03/03 02:00:19;;;;;;;23.40;14.32;;;6.00;71.60;;;;;;5031036;28;20760;-83
2021/03/03 02:02:46;;;;;;;23.65;13.95;;;5.90;71.50;;;;;;5029900;28;20212;-83
2021/03/03 02:05:14;;;;;;;22.23;14.85;;;5.90;71.50;;;;;;5031582;28;20288;-83
2021/03/03 02:07:55;;;;;;;23.95;15.77;;;5.90;71.60;;;;;;5050580;28;20203;-83
2021/03/03 02:10:36;;;;;;;20.20;14.32;;;6.00;71.80;;;;;;5042035;28;20220;-83
2021/03/03 02:13:10;;;;;;;21.08;15.23;;;5.90;71.70;;;;;;5047618;28;20207;-82
2021/03/03 02:15:40;;;;;;;22.45;16.63;;;5.90;71.80;;;;;;5033762;28;20247;-82
2021/03/03 02:18:10;;;;;;;22.13;15.40;;;5.90;71.80;;;;;;5031752;28;20203;-82
2021/03/03 02:20:56;;;;;;;25.55;14.50;;;5.90;71.60;;;;;;5031013;28;20197;-82
2021/03/03 02:23:38;;;;;;;19.50;13.95;;;5.90;71.40;;;;;;5065563;28;20199;-82
2021/03/03 02:26:06;;;;;;;20.67;14.65;;;5.90;71.60;;;;;;5029185;28;20200;-82
2021/03/03 02:28:35;;;;;;;25.52;15.30;;;5.90;71.70;;;;;;5030732;28;20212;-82
2021/03/03 02:31:06;;;;;;;22.98;14.38;;;5.90;71.70;;;;;;5030561;28;20228;-83
2021/03/03 02:33:34;;;;;;;19.40;14.73;;;6.00;71.90;;;;;;5030264;28;20200;-83
2021/03/03 02:36:01;;;;;;;21.30;15.20;;;5.90;71.70;;;;;;5034473;28;20337;-82
2021/03/03 02:38:29;;;;;;;21.88;15.40;;;5.90;72.00;;;;;;5050499;28;20568;-82
2021/03/03 02:40:58;;;;;;;21.17;15.35;;;6.00;72.00;;;;;;5046835;28;20332;-82
2021/03/03 02:43:27;;;;;;;23.58;14.77;;;6.10;71.90;;;;;;5047072;28;20206;-82
2021/03/03 02:45:55;;;;;;;18.25;13.40;;;6.10;71.40;;;;;;5054362;28;20216;-84
2021/03/03 02:48:23;;;;;;;24.45;15.55;;;6.10;71.60;;;;;;5055313;28;20203;-83
2021/03/03 02:50:52;;;;;;;21.67;14.13;;;6.10;71.70;;;;;;5066788;28;20221;-83
2021/03/03 02:53:19;;;;;;;21.50;15.50;;;6.10;71.50;;;;;;5044534;28;20192;-82
2021/03/03 02:55:47;;;;;;;22.27;15.38;;;6.10;71.40;;;;;;5043108;28;20225;-83
2021/03/03 02:58:14;;;;;;;28.52;15.90;;;6.10;71.80;;;;;;5060349;28;20196;-82
2021/03/03 03:00:44;;;;;;;22.52;16.20;;;6.10;71.60;;;;;;5049481;28;20672;-82
2021/03/03 03:03:17;;;;;;;21.25;15.50;;;6.10;71.50;;;;;;5040994;28;20200;-82
2021/03/03 03:05:48;;;;;;;27.35;15.45;;;6.20;72.00;;;;;;5030598;28;20196;-82
2021/03/03 03:08:19;;;;;;;21.92;14.43;;;6.20;71.30;;;;;;5030165;28;20227;-83
2021/03/03 03:10:46;;;;;;;22.23;15.32;;;6.20;71.20;;;;;;5047697;28;20319;-82
2021/03/03 03:13:15;;;;;;;23.35;16.33;;;6.00;70.80;;;;;;5043702;28;20231;-82
2021/03/03 03:15:44;;;;;;;25.80;15.35;;;5.90;71.10;;;;;;5029791;28;20204;-82
2021/03/03 03:18:16;;;;;;;20.42;14.77;;;5.90;71.50;;;;;;5029533;28;20197;-83
2021/03/03 03:20:45;;;;;;;26.55;15.77;;;5.80;71.80;;;;;;5051030;28;20327;-82
2021/03/03 03:23:11;;;;;;;25.13;16.08;;;5.80;72.10;;;;;;5027744;28;20295;-83
2021/03/03 03:25:39;;;;;;;18.55;14.18;;;5.80;72.50;;;;;;5030181;28;20246;-83
2021/03/03 03:28:06;;;;;;;23.33;15.18;;;5.80;72.20;;;;;;5029610;28;20235;-82
2021/03/03 03:30:33;;;;;;;19.05;14.88;;;5.80;72.10;;;;;;5045713;28;20622;-83
2021/03/03 03:33:01;;;;;;;20.67;15.48;;;5.80;72.40;;;;;;5038378;28;20697;-83
2021/03/03 03:35:29;;;;;;;20.42;14.13;;;5.80;72.30;;;;;;5035549;28;20192;-84
2021/03/03 03:37:56;;;;;;;25.80;16.15;;;5.80;72.50;;;;;;5049164;28;20692;-82
2021/03/03 03:40:23;;;;;;;25.90;15.70;;;5.80;72.30;;;;;;5044430;28;20197;-82
2021/03/03 03:42:54;;;;;;;21.80;15.70;;;5.80;72.30;;;;;;5028301;28;20196;-83
2021/03/03 03:45:21;;;;;;;20.52;15.23;;;5.90;72.20;;;;;;5038087;28;20204;-83
2021/03/03 03:47:48;;;;;;;22.60;15.68;;;5.80;72.10;;;;;;5036208;28;20575;-83
2021/03/03 03:50:17;;;;;;;22.48;14.48;;;5.70;72.20;;;;;;5043170;28;20226;-83
2021/03/03 03:52:43;;;;;;;20.80;15.05;;;5.80;72.30;;;;;;5046141;28;20696;-83
2021/03/03 03:55:11;;;;;;;23.08;16.77;;;5.70;72.30;;;;;;5045914;28;20210;-83
2021/03/03 03:57:47;;;;;;;23.27;17.02;;;5.70;72.30;;;;;;5069682;28;20238;-82
2021/03/03 04:00:17;;;;;;;26.83;16.60;;;5.70;72.50;;;;;;5052878;28;20195;-83
2021/03/03 04:02:43;;;;;;;23.48;15.23;;;5.70;72.40;;;;;;5047828;28;20295;-83
2021/03/03 04:05:11;;;;;;;20.63;14.93;;;5.70;72.60;;;;;;5042283;28;20212;-83
2021/03/03 04:07:38;;;;;;;23.73;15.57;;;5.70;72.60;;;;;;5032900;28;20255;-83
2021/03/03 04:10:06;;;;;;;23.13;16.05;;;5.60;72.50;;;;;;5030522;28;20224;-83
2021/03/03 04:12:32;;;;;;;19.98;15.20;;;5.60;72.90;;;;;;5029254;28;20251;-83
2021/03/03 04:14:59;;;;;;;21.65;14.27;;;5.60;73.30;;;;;;5048368;28;20215;-82
2021/03/03 04:17:25;;;;;;;19.88;14.00;;;5.60;73.70;;;;;;5047656;28;20211;-83
2021/03/03 04:19:51;;;;;;;23.08;15.30;;;5.60;73.40;;;;;;5038706;28;20201;-84
2021/03/03 04:22:18;;;;;;;25.17;15.25;;;5.70;73.60;;;;;;5034131;28;20562;-82
2021/03/03 04:24:45;;;;;;;25.88;15.88;;;5.80;73.50;;;;;;5048695;28;20216;-83
2021/03/03 04:27:12;;;;;;;23.42;14.52;;;5.70;72.90;;;;;;5035336;28;20197;-84
2021/03/03 04:29:38;;;;;;;21.35;14.98;;;5.70;73.00;;;;;;5041698;28;20304;-84
2021/03/03 04:32:05;;;;;;;21.40;14.25;;;5.70;72.80;;;;;;5046713;28;20204;-82
2021/03/03 04:34:31;;;;;;;26.05;16.35;;;5.60;72.50;;;;;;5043697;28;20224;-83
2021/03/03 04:36:57;;;;;;;26.20;16.88;;;5.70;73.20;;;;;;5032643;28;20394;-84
2021/03/03 04:39:24;;;;;;;25.60;15.70;;;5.70;72.50;;;;;;5047609;28;20200;-83
2021/03/03 04:41:51;;;;;;;24.30;15.30;;;5.70;73.00;;;;;;5052360;28;20239;-83
2021/03/03 04:44:17;;;;;;;24.08;17.17;;;5.70;73.00;;;;;;5033864;28;20681;-83
2021/03/03 04:46:44;;;;;;;24.77;17.08;;;5.70;73.60;;;;;;5049498;28;20223;-83
2021/03/03 04:49:10;;;;;;;28.23;16.90;;;5.60;73.50;;;;;;5052382;28;20224;-83
2021/03/03 04:51:36;;;;;;;21.17;16.33;;;5.60;73.70;;;;;;5037273;28;20215;-83
2021/03/03 04:54:03;;;;;;;20.83;15.57;;;5.60;73.30;;;;;;5044167;28;20692;-84
2021/03/03 04:56:30;;;;;;;26.80;14.98;;;5.70;74.10;;;;;;5067131;28;20207;-83
2021/03/03 04:58:57;;;;;;;19.38;15.40;;;5.60;73.40;;;;;;5050431;28;20615;-83
2021/03/03 05:01:23;;;;;;;18.58;15.93;;;5.60;73.30;;;;;;5035218;28;20219;-83
2021/03/03 05:03:50;;;;;;;23.42;15.02;;;5.50;73.30;;;;;;5050179;28;20223;-83
2021/03/03 05:06:16;;;;;;;19.98;15.65;;;5.50;73.10;;;;;;5041553;28;20669;-83
2021/03/03 05:08:43;;;;;;;21.83;14.50;;;5.40;73.30;;;;;;5031910;28;20236;-83
2021/03/03 05:11:09;;;;;;;22.95;16.35;;;5.40;73.40;;;;;;5049521;28;20269;-83
2021/03/03 05:13:35;;;;;;;22.38;14.95;;;5.30;73.40;;;;;;5050953;28;20219;-82
2021/03/03 05:16:03;;;;;;;27.33;17.77;;;5.30;73.20;;;;;;5033042;28;20272;-84
2021/03/03 05:18:29;;;;;;;24.38;16.40;;;5.40;74.10;;;;;;5058876;28;20611;-85
2021/03/03 05:21:01;;;;;;;24.25;17.67;;;5.30;73.70;;;;;;5057904;28;20204;-86
2021/03/03 05:23:32;;;;;;;21.02;15.43;;;5.30;73.80;;;;;;5057645;28;21212;-85
2021/03/03 05:25:59;;;;;;;22.13;15.70;;;5.30;74.20;;;;;;5057665;28;20208;-85
2021/03/03 05:28:25;;;;;;;20.27;14.57;;;5.30;74.80;;;;;;5060055;28;20203;-84
2021/03/03 05:30:52;;;;;;;20.95;15.02;;;5.30;74.30;;;;;;5061307;28;20226;-85
2021/03/03 05:33:24;;;;;;;23.35;15.93;;;5.30;74.20;;;;;;5057220;28;20238;-84
2021/03/03 05:35:51;;;;;;;24.13;16.60;;;5.20;74.60;;;;;;5040785;28;20300;-85
2021/03/03 05:38:17;;;;;;;24.05;15.75;;;5.30;74.30;;;;;;5051485;28;20492;-82
2021/03/03 05:40:45;;;;;;;24.10;16.52;;;5.20;74.20;;;;;;5037898;28;20200;-83
2021/03/03 05:43:11;;;;;;;27.60;15.55;;;5.20;74.40;;;;;;5032918;28;20231;-83
2021/03/03 05:45:39;;;;;;;20.95;15.32;;;5.20;74.30;;;;;;5042031;28;20231;-84
2021/03/03 05:48:07;;;;;;;25.77;16.23;;;5.10;74.60;;;;;;5050234;28;20586;-84
2021/03/03 05:50:34;;;;;;;27.83;16.02;;;5.20;75.80;;;;;;5050386;28;20224;-84
2021/03/03 05:53:01;;;;;;;25.77;16.92;;;5.20;75.30;;;;;;5049858;28;20242;-83
2021/03/03 05:55:27;;;;;;;23.27;16.45;;;5.20;75.50;;;;;;5056803;28;20206;-84
2021/03/03 05:57:54;;;;;;;26.88;15.85;;;5.20;76.10;;;;;;5070964;28;20207;-84
2021/03/03 06:00:22;;;;;;;20.70;15.52;;;5.20;76.20;;;;;;5070163;28;20240;-84
2021/03/03 06:02:49;;;;;;;25.45;16.85;;;5.30;76.20;;;;;;5070286;28;20334;-84
2021/03/03 06:05:16;;;;;;;28.70;16.90;;;5.20;76.40;;;;;;5070793;28;20211;-85
2021/03/03 06:07:47;;;;;;;26.83;18.75;;;5.30;76.30;;;;;;5071449;28;20238;-84
2021/03/03 06:10:14;;;;;;;22.92;17.38;;;5.40;76.50;;;;;;5071272;28;20227;-84
2021/03/03 06:12:41;;;;;;;23.35;17.65;;;5.40;76.30;;;;;;5071302;28;20203;-84
2021/03/03 06:15:08;;;;;;;24.02;16.02;;;5.40;76.30;;;;;;5071248;28;20297;-84
2021/03/03 06:17:35;;;;;;;25.60;17.92;;;5.40;76.00;;;;;;5071153;28;20249;-84
2021/03/03 06:20:03;;;;;;;23.20;15.50;;;5.40;75.90;;;;;;5070762;28;20226;-84
2021/03/03 06:22:30;;;;;;;24.95;17.58;;;5.40;75.50;;;;;;5070194;28;20297;-84
2021/03/03 06:24:58;;;;;;;21.08;16.70;;;5.40;75.90;;;;;;5071313;28;20260;-84
2021/03/03 06:27:25;;;;;;;27.67;16.50;;;5.40;76.50;;;;;;5047163;28;20906;-84
2021/03/03 06:30:01;;;;;;;26.93;19.03;;;5.40;75.90;;;;;;5037437;28;21336;-84
2021/03/03 06:32:28;;;;;;;24.27;17.45;;;5.50;75.50;;;;;;5044482;28;21186;-84
2021/03/03 06:34:54;;;;;;;23.13;17.48;;;5.40;75.00;;;;;;5039775;28;20211;-85
2021/03/03 06:37:20;;;;;;;31.17;17.45;;;5.60;75.90;;;;;;5030776;28;20209;-83
2021/03/03 06:40:09;;;;;;;27.73;17.75;;;5.60;75.40;;;;;;5044497;28;20197;-84
2021/03/03 06:42:35;;;;;;;27.60;20.05;;;5.50;74.90;;;;;;5050440;28;20529;-84
2021/03/03 06:45:03;;;;;;;30.80;17.05;;;5.40;74.80;;;;;;5035834;28;20207;-85
2021/03/03 06:47:29;;;;;;;27.77;16.70;;;5.40;75.20;;;;;;5031274;28;20205;-84
2021/03/03 06:50:11;;;;;;;30.67;16.33;;;5.40;75.30;;;;;;5036352;28;20231;-84
2021/03/03 06:52:38;;;;;;;26.65;17.73;;;5.60;75.70;;;;;;5032850;28;20208;-84
2021/03/03 06:55:06;;;;;;;25.27;16.83;;;5.60;75.20;;;;;;5049363;28;20392;-84
2021/03/03 06:57:33;;;;;;;29.92;17.60;;;5.60;74.90;;;;;;5063681;28;20755;-84
2021/03/03 07:00:00;;;;;;;35.58;17.67;;;5.60;75.20;;;;;;5047715;28;20203;-87
2021/03/03 07:02:30;;;;;;;51.45;25.52;;;5.60;75.40;;;;;;5030495;28;20231;-87
2021/03/03 07:04:57;;;;;;;38.38;26.50;;;5.50;75.30;;;;;;5044001;28;20298;-88
2021/03/03 07:07:24;;;;;;;51.13;24.88;;;5.60;75.40;;;;;;5044767;28;20712;-88
2021/03/03 07:09:53;;;;;;;33.10;19.30;;;5.70;75.70;;;;;;5043110;28;20689;-87
2021/03/03 07:12:20;;;;;;;28.58;18.75;;;5.90;75.40;;;;;;5044873;28;20208;-87
2021/03/03 07:15:00;;;;;;;35.03;18.63;;;5.90;75.20;;;;;;5042575;28;20211;-88
2021/03/03 07:17:32;;;;;;;37.85;18.30;;;6.00;75.40;;;;;;5030599;28;20216;-88
2021/03/03 07:20:01;;;;;;;30.27;18.70;;;5.90;75.30;;;;;;5030854;28;20227;-88
2021/03/03 07:22:30;;;;;;;34.15;18.58;;;6.10;75.30;;;;;;5031365;28;20212;-88
2021/03/03 07:25:01;;;;;;;34.17;18.27;;;6.20;75.20;;;;;;5034207;28;20204;-87
2021/03/03 07:27:29;;;;;;;28.45;19.80;;;6.30;75.00;;;;;;5030357;28;20219;-88
2021/03/03 07:29:59;;;;;;;32.28;18.38;;;6.40;74.80;;;;;;5044158;28;20269;-88
2021/03/03 07:32:26;;;;;;;21.52;17.15;;;6.50;74.70;;;;;;5067825;28;20582;-87
2021/03/03 07:34:54;;;;;;;32.80;17.90;;;6.50;74.80;;;;;;5046668;28;20199;-88
2021/03/03 07:37:22;;;;;;;37.83;20.23;;;6.60;75.20;;;;;;5058921;28;20254;-87
2021/03/03 07:39:56;;;;;;;32.85;19.35;;;6.70;75.00;;;;;;5061041;28;20237;-88
2021/03/03 07:42:26;;;;;;;34.00;18.58;;;6.80;74.60;;;;;;5044028;28;20665;-87
2021/03/03 07:44:56;;;;;;;36.60;17.17;;;6.90;74.60;;;;;;5052227;28;20215;-88
2021/03/03 07:47:26;;;;;;;32.70;18.30;;;7.00;74.50;;;;;;5065459;28;20196;-89
2021/03/03 07:49:55;;;;;;;50.38;20.98;;;7.10;74.40;;;;;;5037181;28;20339;-88
2021/03/03 07:52:21;;;;;;;57.78;18.92;;;7.20;74.00;;;;;;5043986;28;20232;-86
2021/03/03 07:54:48;;;;;;;41.42;19.75;;;7.20;73.50;;;;;;5047779;28;20192;-88
2021/03/03 07:57:16;;;;;;;28.63;17.23;;;7.50;73.70;;;;;;5031498;28;20196;-87
2021/03/03 07:59:43;;;;;;;27.38;16.63;;;7.50;73.50;;;;;;5037206;28;20204;-88
2021/03/03 08:02:10;;;;;;;41.22;17.60;;;7.50;72.80;;;;;;5041904;28;20203;-88
2021/03/03 08:04:40;;;;;;;30.25;18.88;;;7.60;73.00;;;;;;5047132;28;20204;-88
2021/03/03 08:07:24;;;;;;;36.08;18.73;;;7.70;73.30;;;;;;5036531;28;20200;-87
2021/03/03 08:10:31;;;;;;;33.65;17.55;;;7.80;72.60;;;;;;5048012;28;20219;-87
2021/03/03 08:13:00;;;;;;;23.27;16.42;;;7.90;71.60;;;;;;5052936;28;20215;-87
2021/03/03 08:15:38;;;;;;;26.48;17.83;;;8.00;71.00;;;;;;5039749;28;20246;-87
2021/03/03 08:18:21;;;;;;;23.88;17.67;;;8.10;69.90;;;;;;5053915;28;20206;-87
2021/03/03 08:20:50;;;;;;;25.10;17.42;;;8.20;69.30;;;;;;5036272;28;20196;-87
2021/03/03 08:23:46;;;;;;;21.05;15.70;;;8.30;68.80;;;;;;5040418;28;20236;-87
2021/03/03 08:26:37;;;;;;;34.53;18.52;;;8.40;68.00;;;;;;5034972;28;20220;-87
2021/03/03 08:29:19;;;;;;;21.67;16.45;;;8.50;67.90;;;;;;5033602;28;20212;-87
2021/03/03 08:31:46;;;;;;;24.38;17.00;;;8.60;67.70;;;;;;5062873;28;20207;-87
2021/03/03 08:34:15;;;;;;;23.02;16.30;;;8.70;67.70;;;;;;5052371;28;20200;-88
2021/03/03 08:37:26;;;;;;;22.17;17.70;;;8.70;67.40;;;;;;5051827;28;20261;-87
2021/03/03 08:39:53;;;;;;;28.60;16.90;;;8.80;67.50;;;;;;5033379;28;20203;-87
2021/03/03 08:42:37;;;;;;;26.67;18.00;;;8.90;67.40;;;;;;5046245;28;20209;-87
2021/03/03 08:45:11;;;;;;;28.60;17.80;;;8.90;67.00;;;;;;5046559;28;20258;-88
2021/03/03 08:47:57;;;;;;;23.30;17.55;;;9.00;66.80;;;;;;5032282;28;20669;-87
2021/03/03 08:50:33;;;;;;;26.58;18.30;;;9.10;66.90;;;;;;5032413;28;20256;-88
2021/03/03 08:53:35;;;;;;;27.95;19.40;;;9.10;66.80;;;;;;5042909;28;20680;-88
2021/03/03 08:56:37;;;;;;;25.48;19.80;;;9.40;66.90;;;;;;5043601;28;20196;-88
2021/03/03 08:59:05;;;;;;;26.20;19.67;;;9.40;66.50;;;;;;5033733;28;20246;-88
2021/03/03 09:01:55;;;;;;;28.25;20.85;;;9.40;66.10;;;;;;5033197;28;20247;-88
2021/03/03 09:04:24;;;;;;;35.10;20.38;;;9.50;66.80;;;;;;5045004;28;20197;-88
2021/03/03 09:06:51;;;;;;;30.83;21.48;;;9.50;65.50;;;;;;5061047;28;20203;-88
2021/03/03 09:09:19;;;;;;;25.05;20.35;;;9.50;65.40;;;;;;5052812;28;20389;-88
2021/03/03 09:11:46;;;;;;;28.10;21.75;;;9.50;65.40;;;;;;5059185;28;20601;-88
2021/03/03 09:14:13;;;;;;;27.00;21.13;;;9.50;65.10;;;;;;5050860;28;20667;-87
2021/03/03 09:16:54;;;;;;;24.88;19.45;;;9.60;65.10;;;;;;5032452;28;20204;-88
2021/03/03 09:19:20;;;;;;;30.40;19.20;;;9.70;64.60;;;;;;5032389;28;20587;-88
2021/03/03 09:21:50;;;;;;;22.20;17.92;;;9.80;64.70;;;;;;5035368;28;20638;-88
2021/03/03 09:24:17;;;;;;;23.40;18.30;;;9.90;64.40;;;;;;5054183;28;20204;-89
2021/03/03 09:26:44;;;;;;;25.67;20.15;;;9.80;64.40;;;;;;5051692;28;20195;-88
2021/03/03 09:29:29;;;;;;;28.58;20.45;;;9.90;64.00;;;;;;5048320;28;20196;-88
2021/03/03 09:31:56;;;;;;;26.42;22.33;;;9.80;64.30;;;;;;5032347;28;20209;-88
2021/03/03 09:34:22;;;;;;;26.15;21.27;;;9.80;64.40;;;;;;5048432;28;20306;-88
2021/03/03 09:36:56;;;;;;;27.57;20.50;;;9.90;64.50;;;;;;5039252;28;20695;-89
2021/03/03 09:39:23;;;;;;;26.30;20.08;;;10.00;63.00;;;;;;5034539;28;20671;-87
2021/03/03 09:41:55;;;;;;;21.83;19.38;;;10.10;62.70;;;;;;5052240;28;20204;-87
2021/03/03 09:44:22;;;;;;;22.35;18.17;;;10.20;63.00;;;;;;5050245;28;20719;-88
2021/03/03 09:47:01;;;;;;;28.17;17.77;;;10.20;62.30;;;;;;5050199;28;20290;-88
2021/03/03 09:49:29;;;;;;;22.87;20.00;;;10.30;62.10;;;;;;5051569;28;20606;-88
2021/03/03 09:51:56;;;;;;;29.43;20.90;;;10.40;62.10;;;;;;5032459;28;20638;-88
2021/03/03 09:54:27;;;;;;;27.73;20.30;;;10.40;62.30;;;;;;5040645;28;20637;-87
2021/03/03 09:56:54;;;;;;;31.13;21.43;;;10.60;62.40;;;;;;5036355;28;20620;-87
2021/03/03 09:59:21;;;;;;;34.93;22.80;;;10.70;62.00;;;;;;5031976;28;20615;-87
2021/03/03 10:01:51;;;;;;;30.97;23.17;;;10.80;61.80;;;;;;5040773;28;21186;-87
2021/03/03 10:04:18;;;;;;;25.77;20.80;;;10.90;61.70;;;;;;5050953;28;20621;-88
2021/03/03 10:06:45;;;;;;;24.73;20.50;;;10.90;61.60;;;;;;5031869;28;20661;-88
2021/03/03 10:09:11;;;;;;;25.80;19.77;;;11.10;61.60;;;;;;5031433;28;20608;-87
2021/03/03 10:12:08;;;;;;;29.00;19.40;;;11.10;61.20;;;;;;5031375;28;20635;-88
2021/03/03 10:14:56;;;;;;;30.83;20.37;;;11.30;61.10;;;;;;5049862;28;20658;-88
2021/03/03 10:17:41;;;;;;;31.10;18.83;;;11.30;60.80;;;;;;5050407;28;20626;-88
2021/03/03 10:20:25;;;;;;;33.60;21.10;;;11.50;60.40;;;;;;5040040;28;20995;-88
2021/03/03 10:22:54;;;;;;;30.23;20.83;;;11.50;60.20;;;;;;5032123;28;20959;-88
2021/03/03 10:25:32;;;;;;;23.67;18.30;;;11.50;60.30;;;;;;5050262;28;20642;-87
2021/03/03 10:28:10;;;;;;;34.27;20.50;;;11.60;60.10;;;;;;5031934;28;20603;-88
2021/03/03 10:30:42;;;;;;;29.07;19.40;;;11.50;60.20;;;;;;5045215;28;20637;-88
2021/03/03 10:33:09;;;;;;;23.03;18.73;;;11.70;60.80;;;;;;5045564;28;20611;-87
2021/03/03 10:35:47;;;;;;;24.10;21.50;;;11.80;60.00;;;;;;5031046;28;20603;-87
2021/03/03 10:38:15;;;;;;;23.37;19.17;;;11.90;59.70;;;;;;5045818;28;20655;-87
2021/03/03 10:40:44;;;;;;;24.60;19.70;;;12.10;59.50;;;;;;5052884;28;20622;-87
2021/03/03 10:43:14;;;;;;;23.70;19.20;;;12.20;59.50;;;;;;5052033;28;20688;-87
2021/03/03 10:45:45;;;;;;;23.27;19.63;;;12.20;59.40;;;;;;5056582;28;20625;-87
2021/03/03 10:48:26;;;;;;;25.10;19.97;;;12.20;59.50;;;;;;5054821;28;20614;-87
2021/03/03 10:50:55;;;;;;;30.70;19.03;;;12.30;59.60;;;;;;5039212;28;21002;-88
2021/03/03 10:53:23;;;;;;;26.23;19.43;;;12.50;59.50;;;;;;5060836;28;20623;-88
2021/03/03 10:55:53;;;;;;;26.00;17.47;;;12.60;59.50;;;;;;5067456;28;20651;-88
2021/03/03 10:58:22;;;;;;;24.10;18.53;;;12.70;59.00;;;;;;5061040;28;20723;-87
2021/03/03 11:01:03;;;;;;;26.00;18.00;;;12.90;58.60;;;;;;5038177;28;20697;-87
2021/03/03 11:03:31;;;;;;;27.50;18.63;;;13.00;58.30;;;;;;5059677;28;20622;-87
2021/03/03 11:06:01;;;;;;;25.13;19.40;;;13.10;58.00;;;;;;5042563;28;20622;-88
2021/03/03 11:08:28;;;;;;;25.53;20.40;;;13.20;58.00;;;;;;5064005;28;21086;-88
2021/03/03 11:11:05;;;;;;;23.70;18.70;;;13.20;57.90;;;;;;5054484;28;21389;-88
2021/03/03 11:13:36;;;;;;;25.07;18.20;;;13.40;57.70;;;;;;5059689;28;20636;-87
2021/03/03 11:16:03;;;;;;;24.53;19.67;;;13.40;57.60;;;;;;5054494;28;20623;-87
2021/03/03 11:18:30;;;;;;;25.67;18.60;;;13.40;57.80;;;;;;5066942;28;20619;-88
2021/03/03 11:20:58;;;;;;;25.43;19.27;;;13.50;57.60;;;;;;5053934;28;21025;-88
2021/03/03 11:23:24;;;;;;;21.80;18.93;;;13.50;57.50;;;;;;5068677;28;20637;-86
2021/03/03 11:25:51;;;;;;;28.63;21.40;;;13.50;57.70;;;;;;5057800;28;21258;-88
2021/03/03 11:28:20;;;;;;;24.20;18.73;;;13.40;57.90;;;;;;5065658;28;20652;-88
2021/03/03 11:30:47;;;;;;;19.87;17.83;;;13.50;58.10;;;;;;5052897;28;20757;-87
2021/03/03 11:33:20;;;;;;;23.20;19.13;;;13.50;58.10;;;;;;5062839;28;20642;-88
2021/03/03 11:35:47;;;;;;;22.60;19.40;;;13.70;58.50;;;;;;5059944;28;20630;-87
2021/03/03 11:38:15;;;;;;;25.83;18.80;;;13.80;57.90;;;;;;5069215;28;20625;-88
2021/03/03 11:40:42;;;;;;;28.57;18.50;;;13.90;57.40;;;;;;5045614;28;20663;-88
2021/03/03 11:43:09;;;;;;;22.37;19.03;;;14.00;57.70;;;;;;5066824;28;20610;-87
2021/03/03 11:45:38;;;;;;;29.07;19.60;;;14.10;57.60;;;;;;5065237;28;20976;-88
2021/03/03 11:48:05;;;;;;;26.07;19.80;;;14.30;57.90;;;;;;5058914;28;20624;-88
2021/03/03 11:50:34;;;;;;;24.30;19.67;;;14.40;56.80;;;;;;5065151;28;21201;-89
2021/03/03 11:53:02;;;;;;;21.10;18.53;;;14.50;57.10;;;;;;5069192;28;20613;-88
2021/03/03 11:55:30;;;;;;;23.10;18.57;;;14.60;57.50;;;;;;5052978;28;20617;-88
2021/03/03 11:57:56;;;;;;;24.33;19.17;;;14.70;57.00;;;;;;5054613;28;20631;-88
2021/03/03 12:00:23;;;;;;;24.00;18.90;;;14.70;57.00;;;;;;5070751;28;20611;-88
2021/03/03 12:02:50;;;;;;;21.83;17.37;;;14.80;56.90;;;;;;5057292;28;20616;-87
2021/03/03 12:05:38;;;;;;;20.90;17.97;;;14.80;55.80;;;;;;5068141;28;20640;-88
2021/03/03 12:08:06;;;;;;;22.13;19.50;;;14.80;56.10;;;;;;5059863;28;20649;-87
2021/03/03 12:10:34;;;;;;;23.30;19.10;;;14.80;55.90;;;;;;5055287;28;20656;-87
2021/03/03 12:13:00;;;;;;;21.87;18.30;;;14.80;56.60;;;;;;5052353;28;20624;-87
2021/03/03 12:15:27;;;;;;;26.37;20.40;;;14.90;57.00;;;;;;5051306;28;21275;-87
2021/03/03 12:17:54;;;;;;;29.50;20.03;;;14.80;56.10;;;;;;5055228;28;20612;-87
2021/03/03 12:20:21;;;;;;;30.17;19.30;;;15.00;56.90;;;;;;5063268;28;20612;-88
2021/03/03 12:22:47;;;;;;;25.73;19.23;;;15.10;56.40;;;;;;5069520;28;20639;-84
2021/03/03 12:25:15;;;;;;;30.67;20.43;;;15.20;56.10;;;;;;5058121;28;20711;-87
2021/03/03 12:27:42;;;;;;;27.10;19.57;;;15.30;56.00;;;;;;5073048;28;20686;-87
2021/03/03 12:30:10;;;;;;;27.83;19.47;;;15.30;56.10;;;;;;5059304;28;21239;-87
2021/03/03 12:32:36;;;;;;;30.33;19.20;;;15.30;56.30;;;;;;5069581;28;21165;-87
2021/03/03 12:35:03;;;;;;;24.87;20.20;;;15.30;56.30;;;;;;5056428;28;20605;-88
2021/03/03 12:37:29;;;;;;;25.53;19.53;;;15.40;56.00;;;;;;5069502;28;20614;-87
2021/03/03 12:39:56;;;;;;;25.67;18.73;;;15.50;55.80;;;;;;5064210;28;20635;-88
2021/03/03 12:42:22;;;;;;;27.03;19.60;;;15.40;55.90;;;;;;5061990;28;20971;-87
2021/03/03 12:44:50;;;;;;;26.33;18.77;;;15.40;56.10;;;;;;5060647;28;20653;-87